sensor_id;sensor_type;location;lat;lon;timestamp;P1;durP1;ratioP1;P2;durP2;ratioP2
22040;SDS011;11184;52.444;13.578;2023-12-04T00:00:59;43.03;;;26.02;;
22040;SDS011;11184;52.444;13.578;2023-12-04T00:03:43;45.03;;;26.73;;
22040;SDS011;11184;52.444;13.578;2023-12-04T00:06:28;38.03;;;24.80;;
22040;SDS011;11184;52.444;13.578;2023-12-04T00:09:13;41.75;;;25.35;;
22040;SDS011;11184;52.444;13.578;2023-12-04T00:11:57;42.95;;;23.15;;
22040;SDS011;11184;52.444;13.578;2023-12-04T00:14:42;40.30;;;24.63;;
22040;SDS011;11184;52.444;13.578;2023-12-04T00:17:26;40.58;;;26.30;;
22040;SDS011;11184;52.444;13.578;2023-12-04T00:20:11;39.15;;;24.13;;
22040;SDS011;11184;52.444;13.578;2023-12-04T00:22:56;41.60;;;23.90;;
22040;SDS011;11184;52.444;13.578;2023-12-04T00:25:40;41.72;;;24.73;;
22040;SDS011;11184;52.444;13.578;2023-12-04T00:28:25;44.10;;;25.77;;
22040;SDS011;11184;52.444;13.578;2023-12-04T00:31:12;48.30;;;25.33;;
22040;SDS011;11184;52.444;13.578;2023-12-04T00:33:57;40.63;;;22.63;;
22040;SDS011;11184;52.444;13.578;2023-12-04T00:36:41;37.45;;;24.52;;
22040;SDS011;11184;52.444;13.578;2023-12-04T00:39:26;43.58;;;24.38;;
22040;SDS011;11184;52.444;13.578;2023-12-04T00:42:10;42.13;;;25.45;;
22040;SDS011;11184;52.444;13.578;2023-12-04T00:44:55;40.25;;;22.98;;
22040;SDS011;11184;52.444;13.578;2023-12-04T00:47:40;41.78;;;24.52;;
22040;SDS011;11184;52.444;13.578;2023-12-04T00:50:24;46.92;;;25.42;;
22040;SDS011;11184;52.444;13.578;2023-12-04T00:53:09;43.08;;;24.15;;
22040;SDS011;11184;52.444;13.578;2023-12-04T00:55:54;46.63;;;26.30;;
22040;SDS011;11184;52.444;13.578;2023-12-04T00:58:38;46.85;;;24.20;;
22040;SDS011;11184;52.444;13.578;2023-12-04T01:01:23;37.83;;;22.42;;
22040;SDS011;11184;52.444;13.578;2023-12-04T01:04:07;43.08;;;26.08;;
22040;SDS011;11184;52.444;13.578;2023-12-04T01:06:52;45.70;;;25.42;;
22040;SDS011;11184;52.444;13.578;2023-12-04T01:09:37;40.00;;;25.27;;
22040;SDS011;11184;52.444;13.578;2023-12-04T01:12:21;42.65;;;25.13;;
22040;SDS011;11184;52.444;13.578;2023-12-04T01:15:06;48.05;;;25.15;;
22040;SDS011;11184;52.444;13.578;2023-12-04T01:17:51;44.22;;;24.88;;
22040;SDS011;11184;52.444;13.578;2023-12-04T01:20:36;41.75;;;25.65;;
22040;SDS011;11184;52.444;13.578;2023-12-04T01:23:20;41.25;;;23.25;;
22040;SDS011;11184;52.444;13.578;2023-12-04T01:26:05;43.55;;;26.92;;
22040;SDS011;11184;52.444;13.578;2023-12-04T01:28:49;40.17;;;25.23;;
22040;SDS011;11184;52.444;13.578;2023-12-04T01:31:34;44.50;;;25.58;;
22040;SDS011;11184;52.444;13.578;2023-12-04T01:34:18;38.70;;;25.88;;
22040;SDS011;11184;52.444;13.578;2023-12-04T01:37:03;47.55;;;27.13;;
22040;SDS011;11184;52.444;13.578;2023-12-04T01:39:48;39.10;;;23.75;;
22040;SDS011;11184;52.444;13.578;2023-12-04T01:42:32;47.95;;;24.48;;
22040;SDS011;11184;52.444;13.578;2023-12-04T01:45:17;43.97;;;25.48;;
22040;SDS011;11184;52.444;13.578;2023-12-04T01:48:03;39.50;;;24.65;;
22040;SDS011;11184;52.444;13.578;2023-12-04T01:50:49;43.60;;;25.77;;
22040;SDS011;11184;52.444;13.578;2023-12-04T01:53:35;48.38;;;26.27;;
22040;SDS011;11184;52.444;13.578;2023-12-04T01:56:20;50.47;;;27.95;;
22040;SDS011;11184;52.444;13.578;2023-12-04T01:59:04;47.92;;;27.38;;
22040;SDS011;11184;52.444;13.578;2023-12-04T02:01:49;45.75;;;27.63;;
22040;SDS011;11184;52.444;13.578;2023-12-04T02:04:34;47.75;;;26.02;;
22040;SDS011;11184;52.444;13.578;2023-12-04T02:07:18;47.15;;;26.90;;
22040;SDS011;11184;52.444;13.578;2023-12-04T02:10:03;49.05;;;27.08;;
22040;SDS011;11184;52.444;13.578;2023-12-04T02:12:49;53.97;;;27.02;;
22040;SDS011;11184;52.444;13.578;2023-12-04T02:15:33;46.75;;;27.00;;
22040;SDS011;11184;52.444;13.578;2023-12-04T02:18:18;48.97;;;25.90;;
22040;SDS011;11184;52.444;13.578;2023-12-04T02:21:03;48.95;;;25.27;;
22040;SDS011;11184;52.444;13.578;2023-12-04T02:23:52;50.03;;;25.95;;
22040;SDS011;11184;52.444;13.578;2023-12-04T02:26:43;50.63;;;24.88;;
22040;SDS011;11184;52.444;13.578;2023-12-04T02:29:33;38.47;;;23.50;;
22040;SDS011;11184;52.444;13.578;2023-12-04T02:32:20;48.85;;;27.27;;
22040;SDS011;11184;52.444;13.578;2023-12-04T02:35:06;40.95;;;25.33;;
22040;SDS011;11184;52.444;13.578;2023-12-04T02:37:53;50.13;;;26.73;;
22040;SDS011;11184;52.444;13.578;2023-12-04T02:40:38;48.70;;;25.67;;
22040;SDS011;11184;52.444;13.578;2023-12-04T02:43:23;48.13;;;26.80;;
22040;SDS011;11184;52.444;13.578;2023-12-04T02:46:08;40.97;;;24.35;;
22040;SDS011;11184;52.444;13.578;2023-12-04T02:48:53;49.53;;;27.30;;
22040;SDS011;11184;52.444;13.578;2023-12-04T02:51:39;46.95;;;26.80;;
22040;SDS011;11184;52.444;13.578;2023-12-04T02:54:24;40.72;;;25.67;;
22040;SDS011;11184;52.444;13.578;2023-12-04T02:57:09;39.38;;;23.55;;
22040;SDS011;11184;52.444;13.578;2023-12-04T02:59:53;45.00;;;25.83;;
22040;SDS011;11184;52.444;13.578;2023-12-04T03:02:38;43.60;;;24.45;;
22040;SDS011;11184;52.444;13.578;2023-12-04T03:05:23;52.90;;;26.92;;
22040;SDS011;11184;52.444;13.578;2023-12-04T03:08:07;44.88;;;25.13;;
22040;SDS011;11184;52.444;13.578;2023-12-04T03:10:52;47.63;;;28.77;;
22040;SDS011;11184;52.444;13.578;2023-12-04T03:13:36;45.53;;;26.58;;
22040;SDS011;11184;52.444;13.578;2023-12-04T03:16:21;40.70;;;24.52;;
22040;SDS011;11184;52.444;13.578;2023-12-04T03:19:06;46.75;;;24.67;;
22040;SDS011;11184;52.444;13.578;2023-12-04T03:21:50;51.20;;;26.55;;
22040;SDS011;11184;52.444;13.578;2023-12-04T03:24:35;37.70;;;24.25;;
22040;SDS011;11184;52.444;13.578;2023-12-04T03:27:20;44.65;;;26.60;;
22040;SDS011;11184;52.444;13.578;2023-12-04T03:30:05;41.50;;;23.80;;
22040;SDS011;11184;52.444;13.578;2023-12-04T03:32:50;43.75;;;26.70;;
22040;SDS011;11184;52.444;13.578;2023-12-04T03:35:34;47.15;;;25.00;;
22040;SDS011;11184;52.444;13.578;2023-12-04T03:38:19;49.40;;;27.38;;
22040;SDS011;11184;52.444;13.578;2023-12-04T03:41:03;43.47;;;26.77;;
22040;SDS011;11184;52.444;13.578;2023-12-04T03:43:48;50.35;;;26.10;;
22040;SDS011;11184;52.444;13.578;2023-12-04T03:46:33;46.25;;;26.27;;
22040;SDS011;11184;52.444;13.578;2023-12-04T03:49:17;44.13;;;25.15;;
22040;SDS011;11184;52.444;13.578;2023-12-04T03:52:02;40.85;;;25.27;;
22040;SDS011;11184;52.444;13.578;2023-12-04T03:54:47;45.83;;;25.75;;
22040;SDS011;11184;52.444;13.578;2023-12-04T03:57:31;50.35;;;25.35;;
22040;SDS011;11184;52.444;13.578;2023-12-04T04:00:16;46.63;;;24.83;;
22040;SDS011;11184;52.444;13.578;2023-12-04T04:03:01;45.17;;;26.33;;
22040;SDS011;11184;52.444;13.578;2023-12-04T04:05:45;40.25;;;26.08;;
22040;SDS011;11184;52.444;13.578;2023-12-04T04:08:30;41.85;;;25.83;;
22040;SDS011;11184;52.444;13.578;2023-12-04T04:11:14;42.20;;;25.73;;
22040;SDS011;11184;52.444;13.578;2023-12-04T04:13:59;50.25;;;26.90;;
22040;SDS011;11184;52.444;13.578;2023-12-04T04:16:44;44.55;;;24.25;;
22040;SDS011;11184;52.444;13.578;2023-12-04T04:19:28;47.42;;;27.38;;
22040;SDS011;11184;52.444;13.578;2023-12-04T04:22:13;40.33;;;24.80;;
22040;SDS011;11184;52.444;13.578;2023-12-04T04:24:58;41.38;;;25.50;;
22040;SDS011;11184;52.444;13.578;2023-12-04T04:27:43;36.03;;;21.17;;
22040;SDS011;11184;52.444;13.578;2023-12-04T04:30:27;41.53;;;25.35;;
22040;SDS011;11184;52.444;13.578;2023-12-04T04:33:12;41.33;;;22.20;;
22040;SDS011;11184;52.444;13.578;2023-12-04T04:35:56;40.63;;;24.95;;
22040;SDS011;11184;52.444;13.578;2023-12-04T04:38:41;38.83;;;25.08;;
22040;SDS011;11184;52.444;13.578;2023-12-04T04:41:26;37.78;;;26.05;;
22040;SDS011;11184;52.444;13.578;2023-12-04T04:44:10;38.53;;;22.15;;
22040;SDS011;11184;52.444;13.578;2023-12-04T04:46:55;40.35;;;22.42;;
22040;SDS011;11184;52.444;13.578;2023-12-04T04:49:40;42.80;;;25.58;;
22040;SDS011;11184;52.444;13.578;2023-12-04T04:52:25;36.58;;;24.23;;
22040;SDS011;11184;52.444;13.578;2023-12-04T04:55:10;41.58;;;23.52;;
22040;SDS011;11184;52.444;13.578;2023-12-04T04:57:54;35.83;;;22.45;;
22040;SDS011;11184;52.444;13.578;2023-12-04T05:00:39;38.38;;;22.70;;
22040;SDS011;11184;52.444;13.578;2023-12-04T05:03:24;38.13;;;24.15;;
22040;SDS011;11184;52.444;13.578;2023-12-04T05:06:08;38.35;;;22.00;;
22040;SDS011;11184;52.444;13.578;2023-12-04T05:08:53;41.33;;;23.45;;
22040;SDS011;11184;52.444;13.578;2023-12-04T05:11:37;40.33;;;24.67;;
22040;SDS011;11184;52.444;13.578;2023-12-04T05:14:22;37.97;;;24.70;;
22040;SDS011;11184;52.444;13.578;2023-12-04T05:17:07;45.20;;;25.17;;
22040;SDS011;11184;52.444;13.578;2023-12-04T05:19:51;36.53;;;22.58;;
22040;SDS011;11184;52.444;13.578;2023-12-04T05:22:36;40.33;;;24.15;;
22040;SDS011;11184;52.444;13.578;2023-12-04T05:25:21;41.80;;;24.77;;
22040;SDS011;11184;52.444;13.578;2023-12-04T05:28:05;41.70;;;26.65;;
22040;SDS011;11184;52.444;13.578;2023-12-04T05:30:50;37.40;;;24.05;;
22040;SDS011;11184;52.444;13.578;2023-12-04T05:33:34;34.67;;;23.10;;
22040;SDS011;11184;52.444;13.578;2023-12-04T05:36:19;36.50;;;25.80;;
22040;SDS011;11184;52.444;13.578;2023-12-04T05:39:04;37.50;;;23.95;;
22040;SDS011;11184;52.444;13.578;2023-12-04T05:41:49;41.70;;;24.83;;
22040;SDS011;11184;52.444;13.578;2023-12-04T05:44:33;39.88;;;26.10;;
22040;SDS011;11184;52.444;13.578;2023-12-04T05:47:18;45.88;;;27.45;;
22040;SDS011;11184;52.444;13.578;2023-12-04T05:50:03;41.42;;;24.02;;
22040;SDS011;11184;52.444;13.578;2023-12-04T05:52:47;36.95;;;24.15;;
22040;SDS011;11184;52.444;13.578;2023-12-04T05:55:32;35.97;;;23.75;;
22040;SDS011;11184;52.444;13.578;2023-12-04T05:58:17;42.47;;;24.38;;
22040;SDS011;11184;52.444;13.578;2023-12-04T06:01:01;41.92;;;26.48;;
22040;SDS011;11184;52.444;13.578;2023-12-04T06:03:47;43.13;;;24.85;;
22040;SDS011;11184;52.444;13.578;2023-12-04T06:06:31;37.95;;;24.30;;
22040;SDS011;11184;52.444;13.578;2023-12-04T06:09:16;38.35;;;23.45;;
22040;SDS011;11184;52.444;13.578;2023-12-04T06:12:01;47.22;;;25.60;;
22040;SDS011;11184;52.444;13.578;2023-12-04T06:14:51;38.78;;;24.27;;
22040;SDS011;11184;52.444;13.578;2023-12-04T06:17:35;40.83;;;25.48;;
22040;SDS011;11184;52.444;13.578;2023-12-04T06:20:20;39.85;;;24.00;;
22040;SDS011;11184;52.444;13.578;2023-12-04T06:23:05;41.47;;;24.13;;
22040;SDS011;11184;52.444;13.578;2023-12-04T06:25:50;36.75;;;23.55;;
22040;SDS011;11184;52.444;13.578;2023-12-04T06:28:34;39.72;;;25.77;;
22040;SDS011;11184;52.444;13.578;2023-12-04T06:31:19;41.00;;;25.52;;
22040;SDS011;11184;52.444;13.578;2023-12-04T06:34:04;37.50;;;24.13;;
22040;SDS011;11184;52.444;13.578;2023-12-04T06:36:49;41.88;;;24.98;;
22040;SDS011;11184;52.444;13.578;2023-12-04T06:39:34;35.85;;;23.58;;
22040;SDS011;11184;52.444;13.578;2023-12-04T06:42:20;41.03;;;23.88;;
22040;SDS011;11184;52.444;13.578;2023-12-04T06:45:05;41.88;;;25.23;;
22040;SDS011;11184;52.444;13.578;2023-12-04T06:47:50;33.17;;;20.98;;
22040;SDS011;11184;52.444;13.578;2023-12-04T06:50:35;37.72;;;23.98;;
22040;SDS011;11184;52.444;13.578;2023-12-04T06:53:20;41.35;;;26.35;;
22040;SDS011;11184;52.444;13.578;2023-12-04T06:56:05;38.58;;;23.40;;
22040;SDS011;11184;52.444;13.578;2023-12-04T06:58:50;34.22;;;21.92;;
22040;SDS011;11184;52.444;13.578;2023-12-04T07:01:35;40.63;;;20.98;;
22040;SDS011;11184;52.444;13.578;2023-12-04T07:04:19;41.70;;;25.67;;
22040;SDS011;11184;52.444;13.578;2023-12-04T07:07:06;34.00;;;22.33;;
22040;SDS011;11184;52.444;13.578;2023-12-04T07:09:51;33.72;;;22.25;;
22040;SDS011;11184;52.444;13.578;2023-12-04T07:12:36;33.80;;;22.02;;
22040;SDS011;11184;52.444;13.578;2023-12-04T07:15:20;35.83;;;22.27;;
22040;SDS011;11184;52.444;13.578;2023-12-04T07:18:05;36.00;;;21.92;;
22040;SDS011;11184;52.444;13.578;2023-12-04T07:20:49;33.50;;;20.83;;
22040;SDS011;11184;52.444;13.578;2023-12-04T07:23:34;31.23;;;20.58;;
22040;SDS011;11184;52.444;13.578;2023-12-04T07:26:18;34.00;;;22.40;;
22040;SDS011;11184;52.444;13.578;2023-12-04T07:29:03;38.53;;;28.35;;
22040;SDS011;11184;52.444;13.578;2023-12-04T07:31:48;29.23;;;22.08;;
22040;SDS011;11184;52.444;13.578;2023-12-04T07:34:33;37.22;;;20.90;;
22040;SDS011;11184;52.444;13.578;2023-12-04T07:37:17;33.40;;;21.08;;
22040;SDS011;11184;52.444;13.578;2023-12-04T07:40:02;36.40;;;21.55;;
22040;SDS011;11184;52.444;13.578;2023-12-04T07:42:49;37.22;;;22.15;;
22040;SDS011;11184;52.444;13.578;2023-12-04T07:45:33;31.98;;;20.05;;
22040;SDS011;11184;52.444;13.578;2023-12-04T07:48:18;26.83;;;19.85;;
22040;SDS011;11184;52.444;13.578;2023-12-04T07:51:03;35.25;;;23.02;;
22040;SDS011;11184;52.444;13.578;2023-12-04T07:53:47;33.15;;;21.85;;
22040;SDS011;11184;52.444;13.578;2023-12-04T07:56:32;29.70;;;20.92;;
22040;SDS011;11184;52.444;13.578;2023-12-04T07:59:16;30.27;;;21.95;;
22040;SDS011;11184;52.444;13.578;2023-12-04T08:02:01;33.22;;;21.45;;
22040;SDS011;11184;52.444;13.578;2023-12-04T08:04:46;33.55;;;19.92;;
22040;SDS011;11184;52.444;13.578;2023-12-04T08:07:31;29.92;;;20.02;;
22040;SDS011;11184;52.444;13.578;2023-12-04T08:10:15;28.40;;;20.08;;
22040;SDS011;11184;52.444;13.578;2023-12-04T08:13:00;33.53;;;22.45;;
22040;SDS011;11184;52.444;13.578;2023-12-04T08:15:45;31.73;;;19.60;;
22040;SDS011;11184;52.444;13.578;2023-12-04T08:18:29;26.38;;;19.73;;
22040;SDS011;11184;52.444;13.578;2023-12-04T08:21:14;31.30;;;20.05;;
22040;SDS011;11184;52.444;13.578;2023-12-04T08:23:58;29.42;;;21.85;;
22040;SDS011;11184;52.444;13.578;2023-12-04T08:26:44;30.08;;;19.08;;
22040;SDS011;11184;52.444;13.578;2023-12-04T08:29:29;27.83;;;19.67;;
22040;SDS011;11184;52.444;13.578;2023-12-04T08:32:14;30.20;;;20.38;;
22040;SDS011;11184;52.444;13.578;2023-12-04T08:34:58;32.55;;;20.88;;
22040;SDS011;11184;52.444;13.578;2023-12-04T08:37:43;33.13;;;19.90;;
22040;SDS011;11184;52.444;13.578;2023-12-04T08:40:28;33.28;;;22.65;;
22040;SDS011;11184;52.444;13.578;2023-12-04T08:43:12;30.58;;;20.98;;
22040;SDS011;11184;52.444;13.578;2023-12-04T08:45:57;36.80;;;23.38;;
22040;SDS011;11184;52.444;13.578;2023-12-04T08:48:42;34.30;;;19.98;;
22040;SDS011;11184;52.444;13.578;2023-12-04T08:51:27;29.20;;;19.33;;
22040;SDS011;11184;52.444;13.578;2023-12-04T08:54:11;33.47;;;21.08;;
22040;SDS011;11184;52.444;13.578;2023-12-04T08:56:56;28.20;;;19.40;;
22040;SDS011;11184;52.444;13.578;2023-12-04T08:59:41;24.67;;;17.38;;
22040;SDS011;11184;52.444;13.578;2023-12-04T09:02:26;24.88;;;16.92;;
22040;SDS011;11184;52.444;13.578;2023-12-04T09:05:10;21.85;;;17.25;;
22040;SDS011;11184;52.444;13.578;2023-12-04T09:07:55;22.83;;;17.08;;
22040;SDS011;11184;52.444;13.578;2023-12-04T09:10:40;25.83;;;17.52;;
22040;SDS011;11184;52.444;13.578;2023-12-04T09:13:24;24.33;;;17.33;;
22040;SDS011;11184;52.444;13.578;2023-12-04T09:16:09;24.45;;;16.67;;
22040;SDS011;11184;52.444;13.578;2023-12-04T09:18:54;23.95;;;15.75;;
22040;SDS011;11184;52.444;13.578;2023-12-04T09:21:39;22.40;;;16.90;;
22040;SDS011;11184;52.444;13.578;2023-12-04T09:24:23;19.45;;;14.95;;
22040;SDS011;11184;52.444;13.578;2023-12-04T09:27:08;21.20;;;16.45;;
22040;SDS011;11184;52.444;13.578;2023-12-04T09:29:53;28.73;;;19.77;;
22040;SDS011;11184;52.444;13.578;2023-12-04T09:32:37;27.88;;;17.38;;
22040;SDS011;11184;52.444;13.578;2023-12-04T09:35:23;24.17;;;15.55;;
22040;SDS011;11184;52.444;13.578;2023-12-04T09:38:07;22.52;;;16.77;;
22040;SDS011;11184;52.444;13.578;2023-12-04T09:40:52;22.00;;;16.10;;
22040;SDS011;11184;52.444;13.578;2023-12-04T09:43:37;18.95;;;15.02;;
22040;SDS011;11184;52.444;13.578;2023-12-04T09:46:22;21.55;;;18.70;;
22040;SDS011;11184;52.444;13.578;2023-12-04T09:49:06;19.65;;;16.73;;
22040;SDS011;11184;52.444;13.578;2023-12-04T09:51:52;24.08;;;16.80;;
22040;SDS011;11184;52.444;13.578;2023-12-04T09:54:38;20.90;;;16.33;;
22040;SDS011;11184;52.444;13.578;2023-12-04T09:57:23;23.08;;;15.77;;
22040;SDS011;11184;52.444;13.578;2023-12-04T10:00:09;20.02;;;16.42;;
22040;SDS011;11184;52.444;13.578;2023-12-04T10:02:55;21.70;;;16.70;;
22040;SDS011;11184;52.444;13.578;2023-12-04T10:05:43;20.38;;;17.33;;
22040;SDS011;11184;52.444;13.578;2023-12-04T10:08:31;19.55;;;16.50;;
22040;SDS011;11184;52.444;13.578;2023-12-04T10:11:16;19.60;;;15.60;;
22040;SDS011;11184;52.444;13.578;2023-12-04T10:14:00;20.30;;;14.25;;
22040;SDS011;11184;52.444;13.578;2023-12-04T10:16:45;17.88;;;13.93;;
22040;SDS011;11184;52.444;13.578;2023-12-04T10:19:30;22.05;;;15.52;;
22040;SDS011;11184;52.444;13.578;2023-12-04T10:22:15;21.02;;;17.92;;
22040;SDS011;11184;52.444;13.578;2023-12-04T10:24:59;19.38;;;17.33;;
22040;SDS011;11184;52.444;13.578;2023-12-04T10:28:08;20.67;;;16.70;;
22040;SDS011;11184;52.444;13.578;2023-12-04T10:30:53;15.68;;;12.80;;
22040;SDS011;11184;52.444;13.578;2023-12-04T10:33:38;21.27;;;14.20;;
22040;SDS011;11184;52.444;13.578;2023-12-04T10:36:22;16.98;;;14.25;;
22040;SDS011;11184;52.444;13.578;2023-12-04T10:39:07;15.13;;;13.43;;
22040;SDS011;11184;52.444;13.578;2023-12-04T10:41:59;17.52;;;13.73;;
22040;SDS011;11184;52.444;13.578;2023-12-04T10:44:44;20.58;;;13.27;;
22040;SDS011;11184;52.444;13.578;2023-12-04T10:47:29;18.33;;;13.52;;
22040;SDS011;11184;52.444;13.578;2023-12-04T10:50:15;16.80;;;13.00;;
22040;SDS011;11184;52.444;13.578;2023-12-04T10:53:01;17.30;;;12.98;;
22040;SDS011;11184;52.444;13.578;2023-12-04T10:55:47;16.20;;;13.40;;
22040;SDS011;11184;52.444;13.578;2023-12-04T10:58:33;13.73;;;12.30;;
22040;SDS011;11184;52.444;13.578;2023-12-04T11:01:18;20.85;;;14.50;;
22040;SDS011;11184;52.444;13.578;2023-12-04T11:04:04;19.92;;;16.25;;
22040;SDS011;11184;52.444;13.578;2023-12-04T11:06:52;16.15;;;13.85;;
22040;SDS011;11184;52.444;13.578;2023-12-04T11:09:37;15.68;;;14.05;;
22040;SDS011;11184;52.444;13.578;2023-12-04T11:12:22;22.88;;;15.75;;
22040;SDS011;11184;52.444;13.578;2023-12-04T11:15:09;16.70;;;11.98;;
22040;SDS011;11184;52.444;13.578;2023-12-04T11:17:58;16.70;;;13.40;;
22040;SDS011;11184;52.444;13.578;2023-12-04T11:20:46;18.67;;;12.73;;
22040;SDS011;11184;52.444;13.578;2023-12-04T11:23:32;14.55;;;12.07;;
22040;SDS011;11184;52.444;13.578;2023-12-04T11:26:17;13.90;;;12.15;;
22040;SDS011;11184;52.444;13.578;2023-12-04T11:29:03;17.17;;;12.55;;
22040;SDS011;11184;52.444;13.578;2023-12-04T11:31:48;20.50;;;12.63;;
22040;SDS011;11184;52.444;13.578;2023-12-04T11:34:34;13.95;;;11.45;;
22040;SDS011;11184;52.444;13.578;2023-12-04T11:37:19;16.83;;;13.10;;
22040;SDS011;11184;52.444;13.578;2023-12-04T11:40:07;12.48;;;10.63;;
22040;SDS011;11184;52.444;13.578;2023-12-04T11:42:54;13.70;;;11.70;;
22040;SDS011;11184;52.444;13.578;2023-12-04T11:45:39;15.82;;;12.82;;
22040;SDS011;11184;52.444;13.578;2023-12-04T11:48:24;14.07;;;11.77;;
22040;SDS011;11184;52.444;13.578;2023-12-04T11:51:09;14.10;;;11.60;;
22040;SDS011;11184;52.444;13.578;2023-12-04T11:53:54;13.95;;;11.45;;
22040;SDS011;11184;52.444;13.578;2023-12-04T11:56:38;15.93;;;12.57;;
22040;SDS011;11184;52.444;13.578;2023-12-04T11:59:23;12.80;;;11.02;;
22040;SDS011;11184;52.444;13.578;2023-12-04T12:02:08;13.15;;;10.48;;
22040;SDS011;11184;52.444;13.578;2023-12-04T12:04:53;13.20;;;11.05;;
22040;SDS011;11184;52.444;13.578;2023-12-04T12:07:38;14.55;;;11.98;;
22040;SDS011;11184;52.444;13.578;2023-12-04T12:10:23;16.90;;;12.63;;
22040;SDS011;11184;52.444;13.578;2023-12-04T12:13:08;14.52;;;11.68;;
22040;SDS011;11184;52.444;13.578;2023-12-04T12:15:54;13.95;;;11.30;;
22040;SDS011;11184;52.444;13.578;2023-12-04T12:18:41;14.30;;;12.60;;
22040;SDS011;11184;52.444;13.578;2023-12-04T12:21:27;16.88;;;12.93;;
22040;SDS011;11184;52.444;13.578;2023-12-04T12:24:12;13.93;;;11.80;;
22040;SDS011;11184;52.444;13.578;2023-12-04T12:26:57;15.80;;;13.07;;
22040;SDS011;11184;52.444;13.578;2023-12-04T12:29:42;15.32;;;11.48;;
22040;SDS011;11184;52.444;13.578;2023-12-04T12:32:27;16.80;;;13.02;;
22040;SDS011;11184;52.444;13.578;2023-12-04T12:35:12;13.20;;;11.23;;
22040;SDS011;11184;52.444;13.578;2023-12-04T12:37:56;16.35;;;12.65;;
22040;SDS011;11184;52.444;13.578;2023-12-04T12:40:41;15.63;;;12.10;;
22040;SDS011;11184;52.444;13.578;2023-12-04T12:43:28;16.13;;;12.95;;
22040;SDS011;11184;52.444;13.578;2023-12-04T12:46:13;16.30;;;12.73;;
22040;SDS011;11184;52.444;13.578;2023-12-04T12:48:57;18.35;;;12.93;;
22040;SDS011;11184;52.444;13.578;2023-12-04T12:51:42;16.67;;;12.88;;
22040;SDS011;11184;52.444;13.578;2023-12-04T12:54:26;14.18;;;12.15;;
22040;SDS011;11184;52.444;13.578;2023-12-04T12:57:12;16.55;;;11.85;;
22040;SDS011;11184;52.444;13.578;2023-12-04T12:59:57;14.48;;;11.73;;
22040;SDS011;11184;52.444;13.578;2023-12-04T13:02:42;14.57;;;12.18;;
22040;SDS011;11184;52.444;13.578;2023-12-04T13:05:28;13.68;;;12.32;;
22040;SDS011;11184;52.444;13.578;2023-12-04T13:08:13;20.08;;;14.18;;
22040;SDS011;11184;52.444;13.578;2023-12-04T13:11:01;18.85;;;13.60;;
22040;SDS011;11184;52.444;13.578;2023-12-04T13:13:46;21.58;;;13.50;;
22040;SDS011;11184;52.444;13.578;2023-12-04T13:16:30;15.55;;;12.43;;
22040;SDS011;11184;52.444;13.578;2023-12-04T13:19:15;16.27;;;12.77;;
22040;SDS011;11184;52.444;13.578;2023-12-04T13:22:00;16.58;;;13.88;;
22040;SDS011;11184;52.444;13.578;2023-12-04T13:24:45;16.42;;;12.85;;
22040;SDS011;11184;52.444;13.578;2023-12-04T13:27:30;16.63;;;13.00;;
22040;SDS011;11184;52.444;13.578;2023-12-04T13:30:15;17.77;;;13.73;;
22040;SDS011;11184;52.444;13.578;2023-12-04T13:33:00;18.42;;;15.60;;
22040;SDS011;11184;52.444;13.578;2023-12-04T13:35:45;15.77;;;13.48;;
22040;SDS011;11184;52.444;13.578;2023-12-04T13:38:29;21.38;;;14.15;;
22040;SDS011;11184;52.444;13.578;2023-12-04T13:41:14;17.52;;;13.02;;
22040;SDS011;11184;52.444;13.578;2023-12-04T13:44:18;19.13;;;14.60;;
22040;SDS011;11184;52.444;13.578;2023-12-04T13:47:03;19.13;;;14.60;;
22040;SDS011;11184;52.444;13.578;2023-12-04T13:49:48;16.48;;;14.25;;
22040;SDS011;11184;52.444;13.578;2023-12-04T13:52:33;19.05;;;14.52;;
22040;SDS011;11184;52.444;13.578;2023-12-04T13:55:18;20.85;;;13.98;;
22040;SDS011;11184;52.444;13.578;2023-12-04T13:58:19;19.13;;;15.63;;
22040;SDS011;11184;52.444;13.578;2023-12-04T14:01:24;26.95;;;16.95;;
22040;SDS011;11184;52.444;13.578;2023-12-04T14:04:12;15.85;;;13.30;;
22040;SDS011;11184;52.444;13.578;2023-12-04T14:06:57;19.75;;;14.48;;
22040;SDS011;11184;52.444;13.578;2023-12-04T14:09:42;20.05;;;15.13;;
22040;SDS011;11184;52.444;13.578;2023-12-04T14:12:28;18.20;;;14.27;;
22040;SDS011;11184;52.444;13.578;2023-12-04T14:25:33;19.50;;;15.20;;
22040;SDS011;11184;52.444;13.578;2023-12-04T14:28:21;20.92;;;14.77;;
22040;SDS011;11184;52.444;13.578;2023-12-04T14:31:06;19.98;;;14.90;;
22040;SDS011;11184;52.444;13.578;2023-12-04T14:33:51;17.85;;;13.32;;
22040;SDS011;11184;52.444;13.578;2023-12-04T14:36:37;22.77;;;15.60;;
22040;SDS011;11184;52.444;13.578;2023-12-04T14:39:22;20.52;;;14.90;;
22040;SDS011;11184;52.444;13.578;2023-12-04T14:42:07;18.45;;;15.55;;
22040;SDS011;11184;52.444;13.578;2023-12-04T14:44:51;20.25;;;14.88;;
22040;SDS011;11184;52.444;13.578;2023-12-04T14:47:36;18.40;;;16.17;;
22040;SDS011;11184;52.444;13.578;2023-12-04T14:50:21;18.67;;;15.32;;
22040;SDS011;11184;52.444;13.578;2023-12-04T14:53:06;17.10;;;14.68;;
22040;SDS011;11184;52.444;13.578;2023-12-04T14:56:12;16.88;;;14.30;;
22040;SDS011;11184;52.444;13.578;2023-12-04T14:59:16;22.08;;;15.77;;
22040;SDS011;11184;52.444;13.578;2023-12-04T15:02:23;19.92;;;14.88;;
22040;SDS011;11184;52.444;13.578;2023-12-04T15:05:42;19.27;;;15.45;;
22040;SDS011;11184;52.444;13.578;2023-12-04T15:08:46;21.90;;;14.77;;
22040;SDS011;11184;52.444;13.578;2023-12-04T15:11:31;17.10;;;14.77;;
22040;SDS011;11184;52.444;13.578;2023-12-04T15:14:27;24.60;;;18.05;;
22040;SDS011;11184;52.444;13.578;2023-12-04T15:17:37;18.35;;;12.30;;
22040;SDS011;11184;52.444;13.578;2023-12-04T15:20:34;20.80;;;15.57;;
22040;SDS011;11184;52.444;13.578;2023-12-04T15:23:22;21.30;;;15.77;;
22040;SDS011;11184;52.444;13.578;2023-12-04T15:26:07;20.60;;;15.90;;
22040;SDS011;11184;52.444;13.578;2023-12-04T15:28:51;18.25;;;14.30;;
22040;SDS011;11184;52.444;13.578;2023-12-04T15:31:36;19.08;;;15.85;;
22040;SDS011;11184;52.444;13.578;2023-12-04T15:34:23;19.38;;;14.77;;
22040;SDS011;11184;52.444;13.578;2023-12-04T15:37:07;21.08;;;15.23;;
22040;SDS011;11184;52.444;13.578;2023-12-04T15:39:52;20.55;;;16.00;;
22040;SDS011;11184;52.444;13.578;2023-12-04T15:42:36;18.38;;;15.13;;
22040;SDS011;11184;52.444;13.578;2023-12-04T15:45:21;19.15;;;15.88;;
22040;SDS011;11184;52.444;13.578;2023-12-04T15:48:06;19.85;;;14.32;;
22040;SDS011;11184;52.444;13.578;2023-12-04T15:50:51;23.13;;;17.95;;
22040;SDS011;11184;52.444;13.578;2023-12-04T15:53:37;24.52;;;16.38;;
22040;SDS011;11184;52.444;13.578;2023-12-04T15:56:22;20.50;;;15.85;;
22040;SDS011;11184;52.444;13.578;2023-12-04T15:59:06;21.98;;;15.60;;
22040;SDS011;11184;52.444;13.578;2023-12-04T16:01:51;25.90;;;15.38;;
22040;SDS011;11184;52.444;13.578;2023-12-04T16:04:36;20.33;;;16.23;;